sensor_id;sensor_type;location;lat;lon;timestamp;P1;durP1;ratioP1;P2;durP2;ratioP2
68989;SDS011;56046;47.270;11.368;2023-04-24T00:02:19;1.88;;;0.65;;
68989;SDS011;56046;47.270;11.368;2023-04-24T00:04:45;4.07;;;0.80;;
68989;SDS011;56046;47.270;11.368;2023-04-24T00:07:10;2.37;;;0.43;;
68989;SDS011;56046;47.270;11.368;2023-04-24T00:09:36;0.60;;;0.50;;
68989;SDS011;56046;47.270;11.368;2023-04-24T00:12:01;0.83;;;0.43;;
68989;SDS011;56046;47.270;11.368;2023-04-24T00:14:29;0.83;;;0.30;;
68989;SDS011;56046;47.270;11.368;2023-04-24T00:16:54;1.45;;;0.43;;
68989;SDS011;56046;47.270;11.368;2023-04-24T00:19:20;1.50;;;0.50;;
68989;SDS011;56046;47.270;11.368;2023-04-24T00:21:46;1.90;;;0.50;;
68989;SDS011;56046;47.270;11.368;2023-04-24T00:24:11;1.60;;;0.60;;
68989;SDS011;56046;47.270;11.368;2023-04-24T00:26:36;1.00;;;0.50;;
68989;SDS011;56046;47.270;11.368;2023-04-24T00:29:02;2.30;;;0.40;;
68989;SDS011;56046;47.270;11.368;2023-04-24T00:31:27;3.20;;;0.43;;
68989;SDS011;56046;47.270;11.368;2023-04-24T00:33:52;0.50;;;0.40;;
68989;SDS011;56046;47.270;11.368;2023-04-24T00:36:17;1.47;;;0.60;;
68989;SDS011;56046;47.270;11.368;2023-04-24T00:38:45;0.80;;;0.40;;
68989;SDS011;56046;47.270;11.368;2023-04-24T00:41:10;0.60;;;0.40;;
68989;SDS011;56046;47.270;11.368;2023-04-24T00:43:36;2.10;;;0.50;;
68989;SDS011;56046;47.270;11.368;2023-04-24T00:46:01;0.97;;;0.50;;
68989;SDS011;56046;47.270;11.368;2023-04-24T00:48:26;1.27;;;0.50;;
68989;SDS011;56046;47.270;11.368;2023-04-24T00:50:52;1.15;;;0.50;;
68989;SDS011;56046;47.270;11.368;2023-04-24T00:53:18;0.90;;;0.60;;
68989;SDS011;56046;47.270;11.368;2023-04-24T00:55:43;1.93;;;0.30;;
68989;SDS011;56046;47.270;11.368;2023-04-24T00:58:08;1.73;;;0.60;;
68989;SDS011;56046;47.270;11.368;2023-04-24T01:00:34;0.60;;;0.40;;
68989;SDS011;56046;47.270;11.368;2023-04-24T01:03:00;2.08;;;0.50;;
68989;SDS011;56046;47.270;11.368;2023-04-24T01:05:26;1.27;;;0.50;;
68989;SDS011;56046;47.270;11.368;2023-04-24T01:07:52;0.80;;;0.40;;
68989;SDS011;56046;47.270;11.368;2023-04-24T01:10:17;0.57;;;0.40;;
68989;SDS011;56046;47.270;11.368;2023-04-24T01:12:42;2.50;;;0.60;;
68989;SDS011;56046;47.270;11.368;2023-04-24T01:15:08;0.97;;;0.40;;
68989;SDS011;56046;47.270;11.368;2023-04-24T01:17:34;1.37;;;0.90;;
68989;SDS011;56046;47.270;11.368;2023-04-24T01:19:59;2.30;;;0.60;;
68989;SDS011;56046;47.270;11.368;2023-04-24T01:22:25;2.58;;;0.60;;
68989;SDS011;56046;47.270;11.368;2023-04-24T01:24:50;1.67;;;0.60;;
68989;SDS011;56046;47.270;11.368;2023-04-24T01:27:16;0.60;;;0.40;;
68989;SDS011;56046;47.270;11.368;2023-04-24T01:29:41;0.60;;;0.37;;
68989;SDS011;56046;47.270;11.368;2023-04-24T01:32:06;0.80;;;0.50;;
68989;SDS011;56046;47.270;11.368;2023-04-24T01:34:32;0.97;;;0.50;;
68989;SDS011;56046;47.270;11.368;2023-04-24T01:36:57;0.70;;;0.50;;
68989;SDS011;56046;47.270;11.368;2023-04-24T01:39:23;1.48;;;0.50;;
68989;SDS011;56046;47.270;11.368;2023-04-24T01:41:50;1.57;;;0.60;;
68989;SDS011;56046;47.270;11.368;2023-04-24T01:44:15;0.87;;;0.50;;
68989;SDS011;56046;47.270;11.368;2023-04-24T01:46:41;1.43;;;0.50;;
68989;SDS011;56046;47.270;11.368;2023-04-24T01:49:06;0.93;;;0.43;;
68989;SDS011;56046;47.270;11.368;2023-04-24T01:51:32;2.50;;;0.40;;
68989;SDS011;56046;47.270;11.368;2023-04-24T01:53:57;1.53;;;0.40;;
68989;SDS011;56046;47.270;11.368;2023-04-24T01:56:22;0.60;;;0.40;;
68989;SDS011;56046;47.270;11.368;2023-04-24T01:58:48;2.10;;;0.50;;
68989;SDS011;56046;47.270;11.368;2023-04-24T02:01:17;1.07;;;0.40;;
68989;SDS011;56046;47.270;11.368;2023-04-24T02:03:42;0.88;;;0.40;;
68989;SDS011;56046;47.270;11.368;2023-04-24T02:06:08;0.40;;;0.40;;
68989;SDS011;56046;47.270;11.368;2023-04-24T02:08:33;0.87;;;0.57;;
68989;SDS011;56046;47.270;11.368;2023-04-24T02:10:58;0.50;;;0.50;;
68989;SDS011;56046;47.270;11.368;2023-04-24T02:13:23;0.50;;;0.40;;
68989;SDS011;56046;47.270;11.368;2023-04-24T02:15:49;0.70;;;0.30;;
68989;SDS011;56046;47.270;11.368;2023-04-24T02:18:14;0.90;;;0.50;;
68989;SDS011;56046;47.270;11.368;2023-04-24T02:20:40;1.35;;;0.50;;
68989;SDS011;56046;47.270;11.368;2023-04-24T02:23:05;1.50;;;0.77;;
68989;SDS011;56046;47.270;11.368;2023-04-24T02:25:31;1.07;;;0.60;;
68989;SDS011;56046;47.270;11.368;2023-04-24T02:27:56;0.83;;;0.53;;
68989;SDS011;56046;47.270;11.368;2023-04-24T02:30:21;0.60;;;0.60;;
68989;SDS011;56046;47.270;11.368;2023-04-24T02:32:47;1.53;;;0.40;;
68989;SDS011;56046;47.270;11.368;2023-04-24T02:35:12;0.77;;;0.40;;
68989;SDS011;56046;47.270;11.368;2023-04-24T02:37:37;2.03;;;0.80;;
68989;SDS011;56046;47.270;11.368;2023-04-24T02:40:03;2.07;;;0.50;;
68989;SDS011;56046;47.270;11.368;2023-04-24T02:42:29;0.47;;;0.40;;
68989;SDS011;56046;47.270;11.368;2023-04-24T02:44:54;0.93;;;0.50;;
68989;SDS011;56046;47.270;11.368;2023-04-24T02:47:19;0.70;;;0.40;;
68989;SDS011;56046;47.270;11.368;2023-04-24T02:49:44;0.70;;;0.57;;
68989;SDS011;56046;47.270;11.368;2023-04-24T02:52:10;0.60;;;0.50;;
68989;SDS011;56046;47.270;11.368;2023-04-24T02:54:35;1.30;;;0.50;;
68989;SDS011;56046;47.270;11.368;2023-04-24T02:57:00;0.50;;;0.40;;
68989;SDS011;56046;47.270;11.368;2023-04-24T02:59:26;1.67;;;0.70;;
68989;SDS011;56046;47.270;11.368;2023-04-24T03:01:53;1.20;;;0.60;;
68989;SDS011;56046;47.270;11.368;2023-04-24T03:04:19;2.83;;;0.50;;
68989;SDS011;56046;47.270;11.368;2023-04-24T03:06:45;0.93;;;0.50;;
68989;SDS011;56046;47.270;11.368;2023-04-24T03:09:10;1.70;;;0.50;;
68989;SDS011;56046;47.270;11.368;2023-04-24T03:11:36;1.83;;;0.43;;
68989;SDS011;56046;47.270;11.368;2023-04-24T03:14:01;1.53;;;0.50;;
68989;SDS011;56046;47.270;11.368;2023-04-24T03:16:26;1.87;;;0.50;;
68989;SDS011;56046;47.270;11.368;2023-04-24T03:18:52;0.90;;;0.40;;
68989;SDS011;56046;47.270;11.368;2023-04-24T03:21:17;1.57;;;0.47;;
68989;SDS011;56046;47.270;11.368;2023-04-24T03:23:42;1.50;;;0.50;;
68989;SDS011;56046;47.270;11.368;2023-04-24T03:26:07;1.13;;;0.40;;
68989;SDS011;56046;47.270;11.368;2023-04-24T03:28:33;1.37;;;0.50;;
68989;SDS011;56046;47.270;11.368;2023-04-24T03:30:58;1.10;;;0.40;;
68989;SDS011;56046;47.270;11.368;2023-04-24T03:33:23;1.00;;;0.50;;
68989;SDS011;56046;47.270;11.368;2023-04-24T03:35:48;2.30;;;0.60;;
68989;SDS011;56046;47.270;11.368;2023-04-24T03:38:14;0.53;;;0.40;;
68989;SDS011;56046;47.270;11.368;2023-04-24T03:40:39;0.50;;;0.33;;
68989;SDS011;56046;47.270;11.368;2023-04-24T03:43:05;1.53;;;0.87;;
68989;SDS011;56046;47.270;11.368;2023-04-24T03:45:30;0.87;;;0.50;;
68989;SDS011;56046;47.270;11.368;2023-04-24T03:47:55;1.30;;;0.90;;
68989;SDS011;56046;47.270;11.368;2023-04-24T03:50:20;1.20;;;0.50;;
68989;SDS011;56046;47.270;11.368;2023-04-24T03:52:46;0.93;;;0.40;;
68989;SDS011;56046;47.270;11.368;2023-04-24T03:55:11;0.60;;;0.40;;
68989;SDS011;56046;47.270;11.368;2023-04-24T03:57:38;1.35;;;0.68;;
68989;SDS011;56046;47.270;11.368;2023-04-24T04:00:03;2.20;;;0.73;;
68989;SDS011;56046;47.270;11.368;2023-04-24T04:02:29;1.35;;;0.50;;
68989;SDS011;56046;47.270;11.368;2023-04-24T04:04:54;0.80;;;0.60;;
68989;SDS011;56046;47.270;11.368;2023-04-24T04:07:20;2.43;;;0.57;;
68989;SDS011;56046;47.270;11.368;2023-04-24T04:09:45;1.80;;;0.60;;
68989;SDS011;56046;47.270;11.368;2023-04-24T04:12:10;2.63;;;0.70;;
68989;SDS011;56046;47.270;11.368;2023-04-24T04:14:35;4.50;;;1.20;;
68989;SDS011;56046;47.270;11.368;2023-04-24T04:17:01;2.57;;;0.90;;
68989;SDS011;56046;47.270;11.368;2023-04-24T04:19:26;1.20;;;0.60;;
68989;SDS011;56046;47.270;11.368;2023-04-24T04:21:51;1.33;;;0.60;;
68989;SDS011;56046;47.270;11.368;2023-04-24T04:24:18;2.35;;;0.80;;
68989;SDS011;56046;47.270;11.368;2023-04-24T04:26:45;1.73;;;0.70;;
68989;SDS011;56046;47.270;11.368;2023-04-24T04:29:12;2.08;;;0.60;;
68989;SDS011;56046;47.270;11.368;2023-04-24T04:31:37;2.47;;;0.70;;
68989;SDS011;56046;47.270;11.368;2023-04-24T04:34:02;1.47;;;0.80;;
68989;SDS011;56046;47.270;11.368;2023-04-24T04:36:28;1.13;;;0.70;;
68989;SDS011;56046;47.270;11.368;2023-04-24T04:38:54;1.63;;;0.63;;
68989;SDS011;56046;47.270;11.368;2023-04-24T04:41:19;1.73;;;0.70;;
68989;SDS011;56046;47.270;11.368;2023-04-24T04:43:45;1.60;;;0.50;;
68989;SDS011;56046;47.270;11.368;2023-04-24T04:46:11;0.70;;;0.60;;
68989;SDS011;56046;47.270;11.368;2023-04-24T04:48:36;1.50;;;0.60;;
68989;SDS011;56046;47.270;11.368;2023-04-24T04:51:03;1.60;;;0.60;;
68989;SDS011;56046;47.270;11.368;2023-04-24T04:53:28;2.17;;;0.80;;
68989;SDS011;56046;47.270;11.368;2023-04-24T04:55:53;2.50;;;1.23;;
68989;SDS011;56046;47.270;11.368;2023-04-24T04:58:18;2.10;;;0.60;;
68989;SDS011;56046;47.270;11.368;2023-04-24T05:00:44;1.53;;;0.80;;
68989;SDS011;56046;47.270;11.368;2023-04-24T05:03:09;0.90;;;0.50;;
68989;SDS011;56046;47.270;11.368;2023-04-24T05:05:34;1.97;;;0.90;;
68989;SDS011;56046;47.270;11.368;2023-04-24T05:08:00;1.73;;;0.80;;
68989;SDS011;56046;47.270;11.368;2023-04-24T05:10:25;2.83;;;1.07;;
68989;SDS011;56046;47.270;11.368;2023-04-24T05:12:50;2.23;;;1.00;;
68989;SDS011;56046;47.270;11.368;2023-04-24T05:15:15;4.28;;;1.40;;
68989;SDS011;56046;47.270;11.368;2023-04-24T05:17:41;4.40;;;1.30;;
68989;SDS011;56046;47.270;11.368;2023-04-24T05:20:06;3.40;;;1.03;;
68989;SDS011;56046;47.270;11.368;2023-04-24T05:22:32;4.10;;;1.60;;
68989;SDS011;56046;47.270;11.368;2023-04-24T05:24:57;4.30;;;1.60;;
68989;SDS011;56046;47.270;11.368;2023-04-24T05:27:22;5.40;;;2.17;;
68989;SDS011;56046;47.270;11.368;2023-04-24T05:29:48;5.57;;;1.90;;
68989;SDS011;56046;47.270;11.368;2023-04-24T05:32:13;4.80;;;1.83;;
68989;SDS011;56046;47.270;11.368;2023-04-24T05:34:38;3.97;;;1.93;;
68989;SDS011;56046;47.270;11.368;2023-04-24T05:37:04;5.37;;;2.20;;
68989;SDS011;56046;47.270;11.368;2023-04-24T05:39:33;4.13;;;2.10;;
68989;SDS011;56046;47.270;11.368;2023-04-24T05:41:58;6.00;;;2.00;;
68989;SDS011;56046;47.270;11.368;2023-04-24T05:44:24;3.97;;;1.67;;
68989;SDS011;56046;47.270;11.368;2023-04-24T05:46:49;4.20;;;1.50;;
68989;SDS011;56046;47.270;11.368;2023-04-24T05:49:14;2.20;;;1.10;;
68989;SDS011;56046;47.270;11.368;2023-04-24T05:51:40;2.83;;;1.50;;
68989;SDS011;56046;47.270;11.368;2023-04-24T05:54:05;4.20;;;1.10;;
68989;SDS011;56046;47.270;11.368;2023-04-24T05:56:30;2.93;;;1.20;;
68989;SDS011;56046;47.270;11.368;2023-04-24T05:58:55;7.57;;;2.10;;
68989;SDS011;56046;47.270;11.368;2023-04-24T06:01:21;12.40;;;5.13;;
68989;SDS011;56046;47.270;11.368;2023-04-24T06:03:46;17.50;;;7.20;;
68989;SDS011;56046;47.270;11.368;2023-04-24T06:06:11;6.97;;;2.73;;
68989;SDS011;56046;47.270;11.368;2023-04-24T06:08:37;4.13;;;1.60;;
68989;SDS011;56046;47.270;11.368;2023-04-24T06:11:02;6.63;;;2.77;;
68989;SDS011;56046;47.270;11.368;2023-04-24T06:13:27;3.93;;;1.60;;
68989;SDS011;56046;47.270;11.368;2023-04-24T06:15:53;7.27;;;2.20;;
68989;SDS011;56046;47.270;11.368;2023-04-24T06:18:18;7.00;;;2.10;;
68989;SDS011;56046;47.270;11.368;2023-04-24T06:20:44;3.57;;;1.60;;
68989;SDS011;56046;47.270;11.368;2023-04-24T06:23:09;3.97;;;1.67;;
68989;SDS011;56046;47.270;11.368;2023-04-24T06:25:35;4.30;;;1.70;;
68989;SDS011;56046;47.270;11.368;2023-04-24T06:28:00;7.87;;;3.43;;
68989;SDS011;56046;47.270;11.368;2023-04-24T06:30:26;9.53;;;4.73;;
68989;SDS011;56046;47.270;11.368;2023-04-24T06:32:53;13.40;;;5.70;;
68989;SDS011;56046;47.270;11.368;2023-04-24T06:35:18;6.17;;;2.50;;
68989;SDS011;56046;47.270;11.368;2023-04-24T06:37:43;6.13;;;2.30;;
68989;SDS011;56046;47.270;11.368;2023-04-24T06:40:09;13.40;;;5.00;;
68989;SDS011;56046;47.270;11.368;2023-04-24T06:42:35;7.60;;;3.47;;
68989;SDS011;56046;47.270;11.368;2023-04-24T06:45:00;5.05;;;2.28;;
68989;SDS011;56046;47.270;11.368;2023-04-24T06:47:26;5.10;;;1.97;;
68989;SDS011;56046;47.270;11.368;2023-04-24T06:49:51;8.77;;;3.90;;
68989;SDS011;56046;47.270;11.368;2023-04-24T06:52:17;6.20;;;2.80;;
68989;SDS011;56046;47.270;11.368;2023-04-24T06:54:42;10.67;;;3.03;;
68989;SDS011;56046;47.270;11.368;2023-04-24T06:57:08;14.27;;;5.50;;
68989;SDS011;56046;47.270;11.368;2023-04-24T06:59:33;9.97;;;4.50;;
68989;SDS011;56046;47.270;11.368;2023-04-24T07:01:58;5.88;;;2.60;;
68989;SDS011;56046;47.270;11.368;2023-04-24T07:04:24;5.90;;;2.50;;
68989;SDS011;56046;47.270;11.368;2023-04-24T07:06:50;6.77;;;2.20;;
68989;SDS011;56046;47.270;11.368;2023-04-24T07:09:16;4.63;;;2.28;;
68989;SDS011;56046;47.270;11.368;2023-04-24T07:11:43;5.00;;;2.72;;
68989;SDS011;56046;47.270;11.368;2023-04-24T07:14:09;6.97;;;2.90;;
68989;SDS011;56046;47.270;11.368;2023-04-24T07:16:35;4.80;;;2.63;;
68989;SDS011;56046;47.270;11.368;2023-04-24T07:19:00;7.57;;;3.67;;
68989;SDS011;56046;47.270;11.368;2023-04-24T07:21:25;7.50;;;3.60;;
68989;SDS011;56046;47.270;11.368;2023-04-24T07:23:51;13.97;;;7.50;;
68989;SDS011;56046;47.270;11.368;2023-04-24T07:26:16;8.87;;;6.03;;
68989;SDS011;56046;47.270;11.368;2023-04-24T07:28:41;5.47;;;3.33;;
68989;SDS011;56046;47.270;11.368;2023-04-24T07:31:07;6.20;;;2.67;;
68989;SDS011;56046;47.270;11.368;2023-04-24T07:33:33;4.70;;;2.50;;
68989;SDS011;56046;47.270;11.368;2023-04-24T07:35:59;4.47;;;2.60;;
68989;SDS011;56046;47.270;11.368;2023-04-24T07:38:24;4.57;;;2.90;;
68989;SDS011;56046;47.270;11.368;2023-04-24T07:40:51;4.47;;;2.42;;
68989;SDS011;56046;47.270;11.368;2023-04-24T07:43:16;5.53;;;2.80;;
68989;SDS011;56046;47.270;11.368;2023-04-24T07:45:41;4.37;;;2.47;;
68989;SDS011;56046;47.270;11.368;2023-04-24T07:48:06;4.83;;;2.67;;
68989;SDS011;56046;47.270;11.368;2023-04-24T07:50:33;5.68;;;2.97;;
68989;SDS011;56046;47.270;11.368;2023-04-24T07:52:59;5.22;;;2.22;;
68989;SDS011;56046;47.270;11.368;2023-04-24T07:55:25;4.70;;;2.53;;
68989;SDS011;56046;47.270;11.368;2023-04-24T07:57:50;4.07;;;2.37;;
68989;SDS011;56046;47.270;11.368;2023-04-24T08:00:16;4.07;;;2.30;;
68989;SDS011;56046;47.270;11.368;2023-04-24T08:02:41;4.03;;;2.00;;
68989;SDS011;56046;47.270;11.368;2023-04-24T08:05:06;4.40;;;2.40;;
68989;SDS011;56046;47.270;11.368;2023-04-24T08:07:32;5.07;;;2.23;;
68989;SDS011;56046;47.270;11.368;2023-04-24T08:09:57;3.83;;;1.98;;
68989;SDS011;56046;47.270;11.368;2023-04-24T08:12:24;3.23;;;2.17;;
68989;SDS011;56046;47.270;11.368;2023-04-24T08:14:49;4.20;;;2.00;;
68989;SDS011;56046;47.270;11.368;2023-04-24T08:17:15;3.97;;;2.20;;
68989;SDS011;56046;47.270;11.368;2023-04-24T08:19:41;3.27;;;1.83;;
68989;SDS011;56046;47.270;11.368;2023-04-24T08:22:13;3.72;;;2.00;;
68989;SDS011;56046;47.270;11.368;2023-04-24T08:24:38;4.93;;;1.60;;
68989;SDS011;56046;47.270;11.368;2023-04-24T08:27:03;3.63;;;1.60;;
68989;SDS011;56046;47.270;11.368;2023-04-24T08:29:28;4.07;;;2.30;;
68989;SDS011;56046;47.270;11.368;2023-04-24T08:31:54;4.20;;;1.70;;
68989;SDS011;56046;47.270;11.368;2023-04-24T08:34:20;4.40;;;1.97;;
68989;SDS011;56046;47.270;11.368;2023-04-24T08:36:45;4.80;;;2.00;;
68989;SDS011;56046;47.270;11.368;2023-04-24T08:39:10;3.23;;;1.90;;
68989;SDS011;56046;47.270;11.368;2023-04-24T08:41:36;4.00;;;2.00;;
68989;SDS011;56046;47.270;11.368;2023-04-24T08:44:02;5.13;;;1.90;;
68989;SDS011;56046;47.270;11.368;2023-04-24T08:46:28;2.77;;;1.60;;
68989;SDS011;56046;47.270;11.368;2023-04-24T08:48:54;2.85;;;1.52;;
68989;SDS011;56046;47.270;11.368;2023-04-24T08:51:20;3.28;;;1.63;;
68989;SDS011;56046;47.270;11.368;2023-04-24T08:53:46;2.80;;;1.30;;
68989;SDS011;56046;47.270;11.368;2023-04-24T08:56:12;3.83;;;2.00;;
68989;SDS011;56046;47.270;11.368;2023-04-24T08:58:38;5.03;;;2.03;;
68989;SDS011;56046;47.270;11.368;2023-04-24T09:01:04;2.45;;;1.40;;
68989;SDS011;56046;47.270;11.368;2023-04-24T09:03:30;3.33;;;1.60;;
68989;SDS011;56046;47.270;11.368;2023-04-24T09:05:56;1.23;;;0.90;;
68989;SDS011;56046;47.270;11.368;2023-04-24T09:08:23;1.30;;;0.85;;
68989;SDS011;56046;47.270;11.368;2023-04-24T09:10:49;0.90;;;0.75;;
68989;SDS011;56046;47.270;11.368;2023-04-24T09:13:14;0.87;;;0.70;;
68989;SDS011;56046;47.270;11.368;2023-04-24T09:15:39;2.00;;;0.80;;
68989;SDS011;56046;47.270;11.368;2023-04-24T09:18:05;1.52;;;0.93;;
68989;SDS011;56046;47.270;11.368;2023-04-24T09:20:31;3.47;;;1.10;;
68989;SDS011;56046;47.270;11.368;2023-04-24T09:22:57;3.33;;;1.00;;
68989;SDS011;56046;47.270;11.368;2023-04-24T09:25:23;1.55;;;0.80;;
68989;SDS011;56046;47.270;11.368;2023-04-24T09:27:53;1.38;;;0.70;;
68989;SDS011;56046;47.270;11.368;2023-04-24T09:30:21;1.58;;;0.70;;
68989;SDS011;56046;47.270;11.368;2023-04-24T09:32:46;2.15;;;0.73;;
68989;SDS011;56046;47.270;11.368;2023-04-24T09:35:12;1.07;;;0.80;;
68989;SDS011;56046;47.270;11.368;2023-04-24T09:37:39;1.87;;;1.47;;
68989;SDS011;56046;47.270;11.368;2023-04-24T09:42:36;2.88;;;1.23;;
68989;SDS011;56046;47.270;11.368;2023-04-24T09:45:01;1.83;;;0.90;;
68989;SDS011;56046;47.270;11.368;2023-04-24T09:47:27;1.10;;;0.90;;
68989;SDS011;56046;47.270;11.368;2023-04-24T09:49:53;1.20;;;0.93;;
68989;SDS011;56046;47.270;11.368;2023-04-24T09:52:22;1.30;;;1.05;;
68989;SDS011;56046;47.270;11.368;2023-04-24T09:54:52;2.10;;;0.80;;
68989;SDS011;56046;47.270;11.368;2023-04-24T09:57:17;2.28;;;1.15;;
68989;SDS011;56046;47.270;11.368;2023-04-24T09:59:45;1.77;;;1.00;;
68989;SDS011;56046;47.270;11.368;2023-04-24T10:02:17;1.85;;;1.02;;
68989;SDS011;56046;47.270;11.368;2023-04-24T10:04:53;2.33;;;1.10;;
68989;SDS011;56046;47.270;11.368;2023-04-24T10:07:19;3.85;;;1.40;;
68989;SDS011;56046;47.270;11.368;2023-04-24T10:09:44;1.77;;;1.20;;
68989;SDS011;56046;47.270;11.368;2023-04-24T10:12:10;1.70;;;1.20;;
68989;SDS011;56046;47.270;11.368;2023-04-24T10:14:35;2.70;;;1.20;;
68989;SDS011;56046;47.270;11.368;2023-04-24T10:17:01;2.43;;;1.20;;
68989;SDS011;56046;47.270;11.368;2023-04-24T10:19:27;2.40;;;1.40;;
68989;SDS011;56046;47.270;11.368;2023-04-24T10:21:54;1.63;;;1.10;;
68989;SDS011;56046;47.270;11.368;2023-04-24T10:24:21;2.83;;;1.08;;
68989;SDS011;56046;47.270;11.368;2023-04-24T10:26:46;4.23;;;1.23;;
68989;SDS011;56046;47.270;11.368;2023-04-24T10:29:14;2.00;;;1.23;;
68989;SDS011;56046;47.270;11.368;2023-04-24T10:31:40;1.45;;;1.08;;
68989;SDS011;56046;47.270;11.368;2023-04-24T10:34:08;3.70;;;1.03;;
68989;SDS011;56046;47.270;11.368;2023-04-24T10:36:34;3.58;;;1.20;;
68989;SDS011;56046;47.270;11.368;2023-04-24T10:39:00;1.40;;;1.00;;
68989;SDS011;56046;47.270;11.368;2023-04-24T10:41:26;2.42;;;1.10;;
68989;SDS011;56046;47.270;11.368;2023-04-24T10:44:04;1.53;;;1.10;;
68989;SDS011;56046;47.270;11.368;2023-04-24T10:46:30;2.30;;;1.20;;
68989;SDS011;56046;47.270;11.368;2023-04-24T10:48:56;1.20;;;1.10;;
68989;SDS011;56046;47.270;11.368;2023-04-24T10:51:22;1.27;;;1.10;;
68989;SDS011;56046;47.270;11.368;2023-04-24T10:53:47;2.93;;;0.90;;
68989;SDS011;56046;47.270;11.368;2023-04-24T10:56:15;1.63;;;1.10;;
68989;SDS011;56046;47.270;11.368;2023-04-24T10:58:50;2.35;;;1.02;;
68989;SDS011;56046;47.270;11.368;2023-04-24T11:01:29;1.27;;;1.05;;
68989;SDS011;56046;47.270;11.368;2023-04-24T11:04:04;2.45;;;1.10;;
68989;SDS011;56046;47.270;11.368;2023-04-24T11:06:32;2.00;;;1.20;;
68989;SDS011;56046;47.270;11.368;2023-04-24T11:11:29;1.92;;;1.08;;
68989;SDS011;56046;47.270;11.368;2023-04-24T11:18:52;3.00;;;1.30;;
68989;SDS011;56046;47.270;11.368;2023-04-24T11:21:19;1.73;;;0.90;;
68989;SDS011;56046;47.270;11.368;2023-04-24T11:23:45;1.95;;;1.10;;
68989;SDS011;56046;47.270;11.368;2023-04-24T11:26:21;1.87;;;1.30;;
68989;SDS011;56046;47.270;11.368;2023-04-24T11:28:48;1.55;;;1.10;;
68989;SDS011;56046;47.270;11.368;2023-04-24T11:33:57;2.37;;;1.53;;
68989;SDS011;56046;47.270;11.368;2023-04-24T11:36:31;2.42;;;1.40;;
68989;SDS011;56046;47.270;11.368;2023-04-24T11:38:56;1.45;;;1.10;;
68989;SDS011;56046;47.270;11.368;2023-04-24T11:41:22;3.42;;;1.23;;
68989;SDS011;56046;47.270;11.368;2023-04-24T11:43:47;1.80;;;0.87;;
68989;SDS011;56046;47.270;11.368;2023-04-24T11:46:16;1.13;;;0.90;;
68989;SDS011;56046;47.270;11.368;2023-04-24T11:48:44;1.60;;;1.00;;
68989;SDS011;56046;47.270;11.368;2023-04-24T11:51:11;2.10;;;1.00;;
68989;SDS011;56046;47.270;11.368;2023-04-24T11:53:37;3.00;;;1.40;;
68989;SDS011;56046;47.270;11.368;2023-04-24T11:56:03;2.87;;;1.63;;
68989;SDS011;56046;47.270;11.368;2023-04-24T11:58:28;2.53;;;1.60;;
68989;SDS011;56046;47.270;11.368;2023-04-24T12:00:56;3.37;;;1.57;;
68989;SDS011;56046;47.270;11.368;2023-04-24T12:03:23;2.53;;;1.20;;
68989;SDS011;56046;47.270;11.368;2023-04-24T12:05:48;1.93;;;1.30;;
68989;SDS011;56046;47.270;11.368;2023-04-24T12:08:26;1.40;;;1.00;;
68989;SDS011;56046;47.270;11.368;2023-04-24T12:10:52;1.60;;;1.10;;
68989;SDS011;56046;47.270;11.368;2023-04-24T12:13:17;1.50;;;1.30;;
68989;SDS011;56046;47.270;11.368;2023-04-24T12:15:42;2.20;;;1.43;;
68989;SDS011;56046;47.270;11.368;2023-04-24T12:18:08;2.42;;;1.42;;
68989;SDS011;56046;47.270;11.368;2023-04-24T12:20:36;2.88;;;1.40;;
68989;SDS011;56046;47.270;11.368;2023-04-24T12:23:01;1.80;;;1.30;;
68989;SDS011;56046;47.270;11.368;2023-04-24T12:25:31;1.80;;;1.40;;
68989;SDS011;56046;47.270;11.368;2023-04-24T12:30:28;2.67;;;1.70;;
68989;SDS011;56046;47.270;11.368;2023-04-24T12:32:54;2.25;;;1.45;;
68989;SDS011;56046;47.270;11.368;2023-04-24T12:35:21;4.15;;;1.58;;
68989;SDS011;56046;47.270;11.368;2023-04-24T12:37:46;3.03;;;1.50;;
68989;SDS011;56046;47.270;11.368;2023-04-24T12:40:12;2.25;;;1.50;;
68989;SDS011;56046;47.270;11.368;2023-04-24T12:45:12;2.25;;;1.30;;
68989;SDS011;56046;47.270;11.368;2023-04-24T12:47:38;2.00;;;1.10;;
68989;SDS011;56046;47.270;11.368;2023-04-24T12:50:04;3.20;;;1.30;;
68989;SDS011;56046;47.270;11.368;2023-04-24T12:52:29;2.88;;;1.33;;
68989;SDS011;56046;47.270;11.368;2023-04-24T12:54:56;2.30;;;1.40;;
68989;SDS011;56046;47.270;11.368;2023-04-24T12:57:22;2.23;;;1.40;;
68989;SDS011;56046;47.270;11.368;2023-04-24T12:59:47;2.10;;;1.10;;
68989;SDS011;56046;47.270;11.368;2023-04-24T13:02:12;1.77;;;0.90;;
68989;SDS011;56046;47.270;11.368;2023-04-24T13:04:38;1.00;;;0.90;;
68989;SDS011;56046;47.270;11.368;2023-04-24T13:07:04;1.60;;;0.95;;
68989;SDS011;56046;47.270;11.368;2023-04-24T13:09:29;1.10;;;1.00;;
68989;SDS011;56046;47.270;11.368;2023-04-24T13:11:55;1.55;;;1.05;;
68989;SDS011;56046;47.270;11.368;2023-04-24T13:14:21;1.23;;;0.90;;
68989;SDS011;56046;47.270;11.368;2023-04-24T13:16:47;1.63;;;1.10;;
68989;SDS011;56046;47.270;11.368;2023-04-24T13:19:12;1.77;;;0.90;;
68989;SDS011;56046;47.270;11.368;2023-04-24T13:21:37;2.00;;;1.03;;
68989;SDS011;56046;47.270;11.368;2023-04-24T13:24:03;0.90;;;0.80;;
68989;SDS011;56046;47.270;11.368;2023-04-24T13:26:29;1.20;;;0.90;;
68989;SDS011;56046;47.270;11.368;2023-04-24T13:28:55;2.03;;;0.95;;
68989;SDS011;56046;47.270;11.368;2023-04-24T13:31:20;1.70;;;1.00;;
68989;SDS011;56046;47.270;11.368;2023-04-24T13:33:46;2.30;;;1.07;;
68989;SDS011;56046;47.270;11.368;2023-04-24T13:36:11;1.80;;;0.93;;
68989;SDS011;56046;47.270;11.368;2023-04-24T13:38:36;1.13;;;0.90;;
68989;SDS011;56046;47.270;11.368;2023-04-24T13:41:01;1.10;;;1.00;;
68989;SDS011;56046;47.270;11.368;2023-04-24T13:43:27;1.00;;;0.90;;
68989;SDS011;56046;47.270;11.368;2023-04-24T13:45:52;1.50;;;1.00;;
68989;SDS011;56046;47.270;11.368;2023-04-24T13:48:18;1.73;;;1.00;;
68989;SDS011;56046;47.270;11.368;2023-04-24T13:50:43;1.30;;;1.00;;
68989;SDS011;56046;47.270;11.368;2023-04-24T13:53:09;1.42;;;0.95;;
68989;SDS011;56046;47.270;11.368;2023-04-24T13:55:34;1.90;;;1.03;;
68989;SDS011;56046;47.270;11.368;2023-04-24T13:58:00;1.67;;;0.90;;
68989;SDS011;56046;47.270;11.368;2023-04-24T14:00:26;1.45;;;0.85;;
68989;SDS011;56046;47.270;11.368;2023-04-24T14:02:51;1.93;;;1.00;;
68989;SDS011;56046;47.270;11.368;2023-04-24T14:05:16;1.53;;;0.90;;
68989;SDS011;56046;47.270;11.368;2023-04-24T14:07:42;1.10;;;0.80;;
68989;SDS011;56046;47.270;11.368;2023-04-24T14:10:07;2.80;;;1.10;;
68989;SDS011;56046;47.270;11.368;2023-04-24T14:12:33;2.65;;;0.70;;
68989;SDS011;56046;47.270;11.368;2023-04-24T14:14:58;1.43;;;0.90;;
68989;SDS011;56046;47.270;11.368;2023-04-24T14:17:23;1.70;;;0.97;;
68989;SDS011;56046;47.270;11.368;2023-04-24T14:19:49;2.17;;;1.05;;
68989;SDS011;56046;47.270;11.368;2023-04-24T14:22:16;1.33;;;0.90;;
68989;SDS011;56046;47.270;11.368;2023-04-24T14:24:42;1.25;;;0.80;;
68989;SDS011;56046;47.270;11.368;2023-04-24T14:27:07;1.00;;;0.90;;
68989;SDS011;56046;47.270;11.368;2023-04-24T14:29:32;1.50;;;0.80;;
68989;SDS011;56046;47.270;11.368;2023-04-24T14:31:57;1.80;;;0.90;;
68989;SDS011;56046;47.270;11.368;2023-04-24T14:34:23;1.00;;;0.90;;
68989;SDS011;56046;47.270;11.368;2023-04-24T14:36:48;0.83;;;0.67;;
68989;SDS011;56046;47.270;11.368;2023-04-24T14:39:13;1.27;;;0.87;;
68989;SDS011;56046;47.270;11.368;2023-04-24T14:41:38;1.50;;;1.00;;
68989;SDS011;56046;47.270;11.368;2023-04-24T14:44:04;1.17;;;0.80;;